createdAt,value
2022-10-23T00:01:53.939Z,7.32
2022-10-23T00:04:25.331Z,6.88
2022-10-23T00:06:51.955Z,6.47
2022-10-23T00:09:22.328Z,6.80
2022-10-23T00:11:50.928Z,6.10
2022-10-23T00:14:21.295Z,6.10
2022-10-23T00:16:47.929Z,6.20
2022-10-23T00:19:14.379Z,6.07
2022-10-23T00:21:41.048Z,6.90
2022-10-23T00:26:38.217Z,7.78
2022-10-23T00:29:04.822Z,7.50
2022-10-23T00:31:31.303Z,7.07
2022-10-23T00:33:57.810Z,8.00
2022-10-23T00:36:24.386Z,7.57
2022-10-23T00:38:51.665Z,7.25
2022-10-23T00:41:19.701Z,7.57
2022-10-23T00:43:55.315Z,7.22
2022-10-23T00:46:21.845Z,7.10
2022-10-23T00:48:48.384Z,7.40
2022-10-23T00:51:14.894Z,7.53
2022-10-23T00:53:43.257Z,7.25
2022-10-23T00:56:10.150Z,6.68
2022-10-23T00:58:36.969Z,7.30
2022-10-23T01:01:16.639Z,7.67
2022-10-23T01:03:43.557Z,6.90
2022-10-23T01:06:15.042Z,6.45
2022-10-23T01:08:54.855Z,6.45
2022-10-23T01:11:45.826Z,6.50
2022-10-23T01:14:26.404Z,7.53
2022-10-23T01:17:01.235Z,6.80
2022-10-23T01:19:59.950Z,7.10
2022-10-23T01:22:54.263Z,7.03
2022-10-23T01:25:30.052Z,6.90
2022-10-23T01:28:04.442Z,7.40
2022-10-23T01:30:32.743Z,7.15
2022-10-23T01:33:08.707Z,6.78
2022-10-23T01:35:40.593Z,6.60
2022-10-23T01:38:27.493Z,6.50
2022-10-23T01:41:31.848Z,6.90
2022-10-23T01:44:13.865Z,6.88
2022-10-23T01:46:42.301Z,6.53
2022-10-23T01:49:12.736Z,6.40
2022-10-23T01:51:40.695Z,6.28
2022-10-23T01:54:10.188Z,6.47
2022-10-23T01:56:41.225Z,5.97
2022-10-23T01:59:14.983Z,6.40
2022-10-23T02:01:45.665Z,6.30
2022-10-23T02:04:18.340Z,6.35
2022-10-23T02:06:44.825Z,6.57
2022-10-23T02:09:11.713Z,7.07
2022-10-23T02:11:50.921Z,6.38
2022-10-23T02:14:29.325Z,6.55
2022-10-23T02:17:03.448Z,6.60
2022-10-23T02:20:06.537Z,6.60
2022-10-23T02:22:47.134Z,7.07
2022-10-23T02:25:18.093Z,6.38
2022-10-23T02:27:48.802Z,6.90
2022-10-23T02:30:18.045Z,7.45
2022-10-23T02:32:49.968Z,6.83
2022-10-23T02:35:18.382Z,6.88
2022-10-23T02:37:56.221Z,6.35
2022-10-23T02:40:24.998Z,6.35
2022-10-23T02:43:14.250Z,6.30
2022-10-23T02:46:04.437Z,6.30
2022-10-23T02:48:46.242Z,6.65
2022-10-23T02:51:26.758Z,5.50
2022-10-23T02:54:06.615Z,6.38
2022-10-23T02:57:14.880Z,6.38
2022-10-23T02:59:52.157Z,6.13
2022-10-23T03:02:26.382Z,6.43
2022-10-23T03:04:55.791Z,6.90
2022-10-23T03:07:22.473Z,6.53
2022-10-23T03:09:49.024Z,6.20
2022-10-23T03:12:15.545Z,6.43
2022-10-23T03:14:42.049Z,6.28
2022-10-23T03:17:09.866Z,6.13
2022-10-23T03:19:36.445Z,5.93
2022-10-23T03:22:03.046Z,5.85
2022-10-23T03:24:29.650Z,6.10
2022-10-23T03:26:56.176Z,6.78
2022-10-23T03:29:22.710Z,7.40
2022-10-23T03:31:49.233Z,7.47
2022-10-23T03:34:15.744Z,6.50
2022-10-23T03:36:42.417Z,5.70
2022-10-23T03:39:08.950Z,5.82
2022-10-23T03:41:35.452Z,6.22
2022-10-23T03:44:02.120Z,6.00
2022-10-23T03:46:28.614Z,6.40
2022-10-23T03:48:58.108Z,7.03
2022-10-23T03:51:25.166Z,7.18
2022-10-23T03:53:51.639Z,7.53
2022-10-23T03:56:18.236Z,7.40
2022-10-23T03:58:44.795Z,8.00
2022-10-23T04:01:11.481Z,7.47
2022-10-23T04:03:38.036Z,8.32
2022-10-23T04:06:04.852Z,7.90
2022-10-23T04:08:31.321Z,7.88
2022-10-23T04:10:57.833Z,7.10
2022-10-23T04:13:24.305Z,6.70
2022-10-23T04:15:52.107Z,6.82
2022-10-23T04:18:19.184Z,6.25
2022-10-23T04:20:49.327Z,7.00
2022-10-23T04:23:16.644Z,6.75
2022-10-23T04:25:43.204Z,6.33
2022-10-23T04:28:09.815Z,6.00
2022-10-23T04:30:36.400Z,6.38
2022-10-23T04:33:02.814Z,6.43
2022-10-23T04:35:29.308Z,6.10
2022-10-23T04:37:55.840Z,6.07
2022-10-23T04:40:22.337Z,6.07
2022-10-23T04:42:48.864Z,6.13
2022-10-23T04:45:15.455Z,5.75
2022-10-23T04:47:42.152Z,5.95
2022-10-23T04:50:08.695Z,6.03
2022-10-23T04:52:35.241Z,5.80
2022-10-23T04:55:01.691Z,6.07
2022-10-23T04:57:28.229Z,6.28
2022-10-23T04:59:54.779Z,5.63
2022-10-23T05:02:21.329Z,5.80
2022-10-23T05:04:47.823Z,6.28
2022-10-23T05:07:14.284Z,5.50
2022-10-23T05:09:40.865Z,6.18
2022-10-23T05:12:07.399Z,5.57
2022-10-23T05:14:33.875Z,6.10
2022-10-23T05:17:11.190Z,5.68
2022-10-23T05:19:45.826Z,5.97
2022-10-23T05:22:13.354Z,6.50
2022-10-23T05:24:40.361Z,6.20
2022-10-23T05:27:06.851Z,6.17
2022-10-23T05:29:33.344Z,6.20
2022-10-23T05:32:03.465Z,6.53
2022-10-23T05:34:33.106Z,5.63
2022-10-23T05:36:59.564Z,6.20
2022-10-23T05:39:26.449Z,6.00
2022-10-23T05:41:54.852Z,7.00
2022-10-23T05:44:21.633Z,7.15
2022-10-23T05:46:48.189Z,6.93
2022-10-23T05:49:14.818Z,6.45
2022-10-23T05:51:41.481Z,6.97
2022-10-23T05:54:08.509Z,6.45
2022-10-23T05:56:41.503Z,6.88
2022-10-23T05:59:08.335Z,6.97
2022-10-23T06:01:34.975Z,7.03
2022-10-23T06:04:02.294Z,6.57
2022-10-23T06:06:28.938Z,6.28
2022-10-23T06:08:55.517Z,6.15
2022-10-23T06:11:22.012Z,6.68
2022-10-23T06:13:48.653Z,6.70
2022-10-23T06:16:20.388Z,6.93
2022-10-23T06:18:47.834Z,6.43
2022-10-23T06:21:15.854Z,6.65
2022-10-23T06:23:44.101Z,6.80
2022-10-23T06:26:15.221Z,5.80
2022-10-23T06:28:42.065Z,6.23
2022-10-23T06:31:14.097Z,6.43
2022-10-23T06:33:41.492Z,6.75
2022-10-23T06:36:10.385Z,6.55
2022-10-23T06:38:40.551Z,6.47
2022-10-23T06:41:12.780Z,6.37
2022-10-23T06:43:39.346Z,7.05
2022-10-23T06:46:05.897Z,7.20
2022-10-23T06:48:32.600Z,6.57
2022-10-23T06:51:03.683Z,7.22
2022-10-23T06:53:30.188Z,7.00
2022-10-23T06:56:00.691Z,7.15
2022-10-23T06:58:27.660Z,7.05
2022-10-23T07:00:54.223Z,7.50
2022-10-23T07:03:20.891Z,7.63
2022-10-23T07:05:47.480Z,6.97
2022-10-23T07:08:14.632Z,8.13
2022-10-23T07:10:42.907Z,7.28
2022-10-23T07:13:10.727Z,7.55
2022-10-23T07:15:38.494Z,7.50
2022-10-23T07:18:05.792Z,7.30
2022-10-23T07:20:32.766Z,6.93
2022-10-23T07:22:59.288Z,6.65
2022-10-23T07:25:27.143Z,6.65
2022-10-23T07:27:55.737Z,7.15
2022-10-23T07:30:22.328Z,7.50
2022-10-23T07:32:49.212Z,7.72
2022-10-23T07:35:17.624Z,8.65
2022-10-23T07:37:44.589Z,8.88
2022-10-23T07:40:11.709Z,8.50
2022-10-23T07:42:38.905Z,9.43
2022-10-23T07:45:07.451Z,9.50
2022-10-23T07:47:34.113Z,10.90
2022-10-23T07:50:00.691Z,9.00
2022-10-23T07:52:30.819Z,8.35
2022-10-23T07:55:00.022Z,8.00
2022-10-23T07:57:26.540Z,8.60
2022-10-23T07:59:54.541Z,10.63
2022-10-23T08:02:21.042Z,12.88
2022-10-23T08:04:50.890Z,8.75
2022-10-23T08:07:17.506Z,8.00
2022-10-23T08:09:44.040Z,7.63
2022-10-23T08:12:10.559Z,8.13
2022-10-23T08:14:37.134Z,7.78
2022-10-23T08:17:05.191Z,6.95
2022-10-23T08:19:32.249Z,7.50
2022-10-23T08:21:58.808Z,7.38
2022-10-23T08:24:25.381Z,7.35
2022-10-23T08:26:51.969Z,7.43
2022-10-23T08:29:18.697Z,6.50
2022-10-23T08:31:45.282Z,6.87
2022-10-23T08:34:12.294Z,6.53
2022-10-23T08:36:39.316Z,7.15
2022-10-23T08:39:06.798Z,6.60
2022-10-23T08:41:36.180Z,7.57
2022-10-23T08:44:08.298Z,6.57
2022-10-23T08:46:40.303Z,6.57
2022-10-23T08:49:43.048Z,7.22
2022-10-23T08:52:21.808Z,6.53
2022-10-23T08:55:07.215Z,7.25
2022-10-23T08:57:42.823Z,6.43
2022-10-23T09:00:16.110Z,5.95
2022-10-23T09:02:52.027Z,6.30
2022-10-23T09:05:25.296Z,5.63
2022-10-23T09:08:12.761Z,5.20
2022-10-23T09:10:55.876Z,4.63
2022-10-23T09:13:59.510Z,4.50
2022-10-23T09:16:41.237Z,4.60
2022-10-23T09:19:16.951Z,4.03
2022-10-23T09:21:49.763Z,4.03
2022-10-23T09:24:18.749Z,4.00
2022-10-23T09:26:49.942Z,4.30
2022-10-23T09:29:32.865Z,3.72
2022-10-23T09:32:01.856Z,3.90
2022-10-23T09:34:30.316Z,3.85
2022-10-23T09:37:21.323Z,3.80
2022-10-23T09:39:48.264Z,3.20
2022-10-23T09:42:25.835Z,4.05
2022-10-23T09:44:54.367Z,3.22
2022-10-23T09:47:25.636Z,3.10
2022-10-23T09:49:56.730Z,3.30
2022-10-23T09:52:37.276Z,3.42
2022-10-23T09:55:19.641Z,3.63
2022-10-23T09:57:47.321Z,3.08
2022-10-23T10:00:14.041Z,3.25
2022-10-23T10:02:43.948Z,3.10
2022-10-23T10:05:26.386Z,3.33
2022-10-23T10:08:16.841Z,3.00
2022-10-23T10:11:01.085Z,2.60
2022-10-23T10:13:33.446Z,2.80
2022-10-23T10:16:08.665Z,2.67
2022-10-23T10:18:53.942Z,2.72
2022-10-23T10:21:47.147Z,2.90
2022-10-23T10:24:30.479Z,2.67
2022-10-23T10:27:09.741Z,3.00
2022-10-23T10:29:50.717Z,2.73
2022-10-23T10:32:54.047Z,2.38
2022-10-23T10:35:52.482Z,2.75
2022-10-23T10:38:25.346Z,2.70
2022-10-23T10:41:21.458Z,2.40
2022-10-23T10:44:06.191Z,2.40
2022-10-23T10:46:48.219Z,2.20
2022-10-23T10:49:32.958Z,2.47
2022-10-23T10:52:19.818Z,2.25
2022-10-23T10:55:11.392Z,2.25
2022-10-23T10:58:05.009Z,2.07
2022-10-23T11:00:33.600Z,2.00
2022-10-23T11:03:16.050Z,1.80
2022-10-23T11:05:46.495Z,2.10
2022-10-23T11:08:16.246Z,1.70
2022-10-23T11:10:46.734Z,2.20
2022-10-23T11:13:32.153Z,2.15
2022-10-23T11:16:03.936Z,1.90
2022-10-23T11:18:32.137Z,1.90
2022-10-23T11:21:31.058Z,1.80
2022-10-23T11:24:30.108Z,2.20
2022-10-23T11:27:10.464Z,1.95
2022-10-23T11:30:12.673Z,2.00
2022-10-23T11:32:52.867Z,1.73
2022-10-23T11:35:43.797Z,1.73
2022-10-23T11:38:13.201Z,1.90
2022-10-23T11:40:55.904Z,1.70
2022-10-23T11:43:56.936Z,1.50
2022-10-23T11:46:23.362Z,1.40
2022-10-23T11:48:50.969Z,1.25
2022-10-23T11:51:35.804Z,1.37
2022-10-23T11:54:24.283Z,1.25
2022-10-23T11:56:56.283Z,1.30
2022-10-23T11:59:28.458Z,1.50
2022-10-23T12:01:58.142Z,1.60
2022-10-23T12:04:30.578Z,1.40
2022-10-23T12:07:01.054Z,1.40
2022-10-23T12:09:33.106Z,1.60
2022-10-23T12:12:09.968Z,1.60
2022-10-23T12:14:40.242Z,1.70
2022-10-23T12:17:32.512Z,1.50
2022-10-23T12:20:07.970Z,1.92
2022-10-23T12:22:44.472Z,1.80
2022-10-23T12:25:16.759Z,1.98
2022-10-23T12:28:12.632Z,2.20
2022-10-23T12:30:50.440Z,1.93
2022-10-23T12:33:33.873Z,2.10
2022-10-23T12:36:09.413Z,2.25
2022-10-23T12:38:43.865Z,2.03
2022-10-23T12:41:14.975Z,2.20
2022-10-23T12:43:45.466Z,2.40
2022-10-23T12:46:17.628Z,2.53
2022-10-23T12:48:53.042Z,2.80
2022-10-23T12:51:23.854Z,2.30
2022-10-23T12:53:50.527Z,2.30
2022-10-23T12:56:18.155Z,2.37
2022-10-23T12:58:56.551Z,2.45
2022-10-23T13:01:32.015Z,2.60
2022-10-23T13:04:13.088Z,2.05
2022-10-23T13:06:40.338Z,4.32
2022-10-23T13:09:22.046Z,7.03
2022-10-23T13:11:50.478Z,2.97
2022-10-23T13:14:39.287Z,2.03
2022-10-23T13:17:10.729Z,1.95
2022-10-23T13:19:38.061Z,1.60
2022-10-23T13:22:15.575Z,1.50
2022-10-23T13:24:42.632Z,1.88
2022-10-23T13:27:26.962Z,1.83
2022-10-23T13:29:53.525Z,1.77
2022-10-23T13:32:25.934Z,1.90
2022-10-23T13:35:04.129Z,1.67
2022-10-23T13:37:37.035Z,1.60
2022-10-23T13:40:09.581Z,1.60
2022-10-23T13:42:36.316Z,2.00
2022-10-23T13:45:02.923Z,1.98
2022-10-23T13:47:29.370Z,2.37
2022-10-23T13:49:55.857Z,2.35
2022-10-23T13:52:23.746Z,2.58
2022-10-23T13:54:50.624Z,2.55
2022-10-23T13:57:17.126Z,2.80
2022-10-23T13:59:43.786Z,2.40
2022-10-23T14:02:20.114Z,2.10
2022-10-23T14:04:47.563Z,2.20
2022-10-23T14:07:14.067Z,2.25
2022-10-23T14:09:40.582Z,2.50
2022-10-23T14:12:07.454Z,2.20
2022-10-23T14:14:34.321Z,2.08
2022-10-23T14:17:00.786Z,2.70
2022-10-23T14:19:27.420Z,2.22
2022-10-23T14:21:53.946Z,2.30
2022-10-23T14:24:20.398Z,3.30
2022-10-23T14:26:47.063Z,2.08
2022-10-23T14:29:21.443Z,2.58
2022-10-23T14:31:50.832Z,2.25
2022-10-23T14:34:17.321Z,1.90
2022-10-23T14:36:50.238Z,2.23
2022-10-23T14:39:17.912Z,2.20
2022-10-23T14:41:44.542Z,2.03
2022-10-23T14:44:11.109Z,1.92
2022-10-23T14:46:38.447Z,2.22
2022-10-23T14:49:05.305Z,2.20
2022-10-23T14:51:31.899Z,1.75
2022-10-23T14:54:01.775Z,2.10
2022-10-23T14:56:29.966Z,2.60
2022-10-23T14:59:02.790Z,1.83
2022-10-23T15:01:42.267Z,2.60
2022-10-23T15:04:11.883Z,2.42
2022-10-23T15:06:38.462Z,2.40
2022-10-23T15:09:05.279Z,2.40
2022-10-23T15:11:31.986Z,2.15
2022-10-23T15:14:00.199Z,2.60
2022-10-23T15:16:27.512Z,2.22
2022-10-23T15:18:54.031Z,10.13
2022-10-23T15:21:21.521Z,2.65
2022-10-23T15:23:48.691Z,2.30
2022-10-23T15:26:21.023Z,2.60
2022-10-23T15:28:52.119Z,2.13
2022-10-23T15:31:30.665Z,2.10
2022-10-23T15:33:57.890Z,2.00
2022-10-23T15:36:24.306Z,1.95
2022-10-23T15:38:51.145Z,2.30
2022-10-23T15:41:25.808Z,2.58
2022-10-23T15:43:52.307Z,2.58
2022-10-23T15:46:18.793Z,2.40
2022-10-23T15:48:45.515Z,2.15
2022-10-23T15:51:12.021Z,2.30
2022-10-23T15:53:38.528Z,1.95
2022-10-23T15:56:05.292Z,2.15
2022-10-23T15:58:32.247Z,2.78
2022-10-23T16:01:06.119Z,2.88
2022-10-23T16:03:33.990Z,4.43
2022-10-23T16:06:07.597Z,4.05
2022-10-23T16:08:34.430Z,3.83
2022-10-23T16:11:01.338Z,4.10
2022-10-23T16:13:28.481Z,3.10
2022-10-23T16:15:55.130Z,3.37
2022-10-23T16:18:23.166Z,2.60
2022-10-23T16:20:55.043Z,3.42
2022-10-23T16:23:21.937Z,3.30
2022-10-23T16:25:48.446Z,3.38
2022-10-23T16:28:14.968Z,3.20
2022-10-23T16:30:42.598Z,2.90
2022-10-23T16:33:09.614Z,3.17
2022-10-23T16:35:36.702Z,4.20
2022-10-23T16:38:04.310Z,5.35
2022-10-23T16:40:30.964Z,5.20
2022-10-23T16:42:58.232Z,4.43
2022-10-23T16:45:24.919Z,4.75
2022-10-23T16:47:51.517Z,4.20
2022-10-23T16:50:18.100Z,3.85
2022-10-23T16:52:44.997Z,9.80
2022-10-23T16:55:11.700Z,4.00
2022-10-23T16:57:39.499Z,3.97
2022-10-23T17:00:07.106Z,4.25
2022-10-23T17:02:33.884Z,4.32
2022-10-23T17:05:00.531Z,4.60
2022-10-23T17:07:27.033Z,4.57
2022-10-23T17:09:53.554Z,4.88
2022-10-23T17:12:20.235Z,4.65
2022-10-23T17:14:46.778Z,4.35
2022-10-23T17:17:13.597Z,3.30
2022-10-23T17:19:46.030Z,3.63
2022-10-23T17:22:14.333Z,3.90
2022-10-23T17:24:41.929Z,3.58
2022-10-23T17:27:08.740Z,3.70
2022-10-23T17:29:35.690Z,3.77
2022-10-23T17:32:02.662Z,4.10
2022-10-23T17:34:29.150Z,4.38
2022-10-23T17:36:55.734Z,4.18
2022-10-23T17:39:27.975Z,4.22
2022-10-23T17:41:55.003Z,4.43
2022-10-23T17:44:21.634Z,3.40
2022-10-23T17:46:53.785Z,3.88
2022-10-23T17:49:21.727Z,3.78
2022-10-23T17:51:52.304Z,3.92
2022-10-23T17:54:19.265Z,3.67
2022-10-23T17:56:45.789Z,3.60
2022-10-23T17:59:15.249Z,4.60
2022-10-23T18:01:46.807Z,4.10
2022-10-23T18:04:14.379Z,4.00
2022-10-23T18:06:44.015Z,3.73
2022-10-23T18:09:11.060Z,4.28
2022-10-23T18:11:43.835Z,3.95
2022-10-23T18:14:15.231Z,4.38
2022-10-23T18:16:41.818Z,4.43
2022-10-23T18:19:09.003Z,4.80
2022-10-23T18:21:36.420Z,4.60
2022-10-23T18:24:03.524Z,4.72
2022-10-23T18:26:32.130Z,4.63
2022-10-23T18:28:59.564Z,4.22
2022-10-23T18:31:30.157Z,4.20
2022-10-23T18:33:58.922Z,6.32
2022-10-23T18:36:28.618Z,5.95
2022-10-23T18:41:27.219Z,20.25
2022-10-23T18:43:54.564Z,8.40
2022-10-23T18:46:21.491Z,5.70
2022-10-23T18:48:50.688Z,5.18
2022-10-23T18:51:19.091Z,5.10
2022-10-23T18:53:46.774Z,5.43
2022-10-23T18:56:23.220Z,5.00
2022-10-23T18:58:51.418Z,4.78
2022-10-23T19:01:19.473Z,5.10
2022-10-23T19:03:46.485Z,4.70
2022-10-23T19:06:13.945Z,4.65
2022-10-23T19:08:42.325Z,5.30
2022-10-23T19:11:09.681Z,4.63
2022-10-23T19:13:39.109Z,5.20
2022-10-23T19:16:14.243Z,4.93
2022-10-23T19:18:45.138Z,4.40
2022-10-23T19:21:12.219Z,5.13
2022-10-23T19:23:41.809Z,4.80
2022-10-23T19:26:10.621Z,4.93
2022-10-23T19:28:39.968Z,4.53
2022-10-23T19:31:09.797Z,5.38
2022-10-23T19:33:38.783Z,5.10
2022-10-23T19:36:08.863Z,4.40
2022-10-23T19:38:40.210Z,4.70
2022-10-23T19:41:07.265Z,4.38
2022-10-23T19:43:34.146Z,4.18
2022-10-23T19:46:04.992Z,4.03
2022-10-23T19:48:34.404Z,4.10
2022-10-23T19:51:01.369Z,4.20
2022-10-23T19:53:27.871Z,4.60
2022-10-23T19:56:06.300Z,4.60
2022-10-23T19:58:32.911Z,4.30
2022-10-23T20:01:14.612Z,3.88
2022-10-23T20:03:42.774Z,4.13
2022-10-23T20:06:11.635Z,4.30
2022-10-23T20:08:38.406Z,3.92
2022-10-23T20:11:05.825Z,4.43
2022-10-23T20:13:32.450Z,4.00
2022-10-23T20:15:59.067Z,3.92
2022-10-23T20:18:26.056Z,3.95
2022-10-23T20:20:53.469Z,4.10
2022-10-23T20:23:20.003Z,3.83
2022-10-23T20:25:46.639Z,3.78
2022-10-23T20:28:15.105Z,4.07
2022-10-23T20:30:42.461Z,4.18
2022-10-23T20:33:08.969Z,3.78
2022-10-23T20:35:40.919Z,3.93
2022-10-23T20:38:08.471Z,3.90
2022-10-23T20:40:35.295Z,4.20
2022-10-23T20:43:01.875Z,4.07
2022-10-23T20:45:28.389Z,4.30
2022-10-23T20:47:54.902Z,4.00
2022-10-23T20:50:23.742Z,3.97
2022-10-23T20:52:50.782Z,3.75
2022-10-23T20:55:17.964Z,3.92
2022-10-23T20:57:44.925Z,3.60
2022-10-23T21:00:12.006Z,3.97
2022-10-23T21:02:39.474Z,5.43
2022-10-23T21:05:06.440Z,4.63
2022-10-23T21:07:32.891Z,4.50
2022-10-23T21:09:59.520Z,4.47
2022-10-23T21:12:26.024Z,3.83
2022-10-23T21:14:53.500Z,3.72
2022-10-23T21:17:20.180Z,4.10
2022-10-23T21:19:46.912Z,4.00
2022-10-23T21:22:13.490Z,3.67
2022-10-23T21:24:40.002Z,4.10
2022-10-23T21:27:06.469Z,4.05
2022-10-23T21:29:32.998Z,4.10
2022-10-23T21:32:03.208Z,4.18
2022-10-23T21:34:30.147Z,4.10
2022-10-23T21:37:13.863Z,4.27
2022-10-23T21:39:42.145Z,4.10
2022-10-23T21:42:08.848Z,4.78
2022-10-23T21:44:35.643Z,4.57
2022-10-23T21:47:02.326Z,4.35
2022-10-23T21:49:28.945Z,4.37
2022-10-23T21:51:55.447Z,4.35
2022-10-23T21:54:22.304Z,5.05
2022-10-23T21:56:51.455Z,4.72
2022-10-23T21:59:19.980Z,4.50
2022-10-23T22:01:48.162Z,4.27
2022-10-23T22:04:17.125Z,4.50
2022-10-23T22:06:45.228Z,4.55
2022-10-23T22:09:14.198Z,4.50
2022-10-23T22:11:41.172Z,4.55
2022-10-23T22:14:07.810Z,4.63
2022-10-23T22:16:34.362Z,4.97
2022-10-23T22:19:00.866Z,4.60
2022-10-23T22:21:29.863Z,4.53
2022-10-23T22:23:58.227Z,4.70
2022-10-23T22:26:31.703Z,4.20
2022-10-23T22:29:01.208Z,4.70
2022-10-23T22:31:31.572Z,5.00
2022-10-23T22:33:59.398Z,4.35
2022-10-23T22:36:26.577Z,4.72
2022-10-23T22:38:54.231Z,4.30
2022-10-23T22:41:21.093Z,4.70
2022-10-23T22:43:47.605Z,4.55
2022-10-23T22:46:16.884Z,4.40
2022-10-23T22:48:44.323Z,4.20
2022-10-23T22:51:15.872Z,4.50
2022-10-23T22:53:43.327Z,4.70
2022-10-23T22:56:14.683Z,4.15
2022-10-23T22:58:41.735Z,4.32
2022-10-23T23:01:20.519Z,3.75
2022-10-23T23:03:47.768Z,3.73
2022-10-23T23:06:14.870Z,4.20
2022-10-23T23:08:42.528Z,3.40
2022-10-23T23:11:12.006Z,4.00
2022-10-23T23:13:39.414Z,3.97
2022-10-23T23:16:06.501Z,3.97
2022-10-23T23:18:34.036Z,3.88
2022-10-23T23:21:02.272Z,4.50
2022-10-23T23:23:28.892Z,4.35
2022-10-23T23:25:55.506Z,4.68
2022-10-23T23:28:22.267Z,4.77
2022-10-23T23:30:49.068Z,4.55
2022-10-23T23:33:22.227Z,4.70
2022-10-23T23:35:48.802Z,5.00
2022-10-23T23:38:15.265Z,4.75
2022-10-23T23:40:50.930Z,6.20
2022-10-23T23:43:17.677Z,4.85
2022-10-23T23:45:44.206Z,4.75
2022-10-23T23:48:10.771Z,4.78
2022-10-23T23:50:38.265Z,5.60
2022-10-23T23:53:04.874Z,5.80
2022-10-23T23:55:31.454Z,5.07
2022-10-23T23:57:57.964Z,5.40
